createdAt,value
2023-05-08T00:03:17.734Z,99.90
2023-05-08T00:07:26.606Z,99.90
2023-05-08T00:11:35.229Z,1.00
2023-05-08T00:16:03.254Z,1.00
2023-05-08T00:20:12.971Z,1.00
2023-05-08T00:24:21.822Z,1.00
2023-05-08T00:28:30.530Z,1.00
2023-05-08T00:32:40.289Z,99.90
2023-05-08T00:36:49.122Z,99.90
2023-05-08T00:40:58.166Z,1.00
2023-05-08T00:45:07.617Z,1.00
2023-05-08T00:49:17.484Z,1.00
2023-05-08T00:53:28.032Z,99.90
2023-05-08T00:57:37.852Z,99.90
2023-05-08T01:01:47.743Z,77.30
2023-05-08T01:05:56.582Z,1.00
2023-05-08T01:10:05.782Z,1.00
2023-05-08T01:14:32.306Z,99.90
2023-05-08T01:18:46.863Z,99.90
2023-05-08T01:23:20.884Z,7.00
2023-05-08T01:28:05.283Z,1.00
2023-05-08T01:32:22.864Z,1.00
2023-05-08T01:36:34.576Z,1.00
2023-05-08T01:41:13.308Z,1.00
2023-05-08T01:45:36.786Z,1.00
2023-05-08T01:50:10.383Z,99.90
2023-05-08T01:54:24.644Z,99.90
2023-05-08T01:58:35.203Z,99.90
2023-05-08T02:03:05.546Z,99.90
2023-05-08T02:07:15.980Z,1.00
2023-05-08T02:11:25.944Z,1.00
2023-05-08T02:15:36.683Z,1.00
2023-05-08T02:19:46.937Z,1.00
2023-05-08T02:23:57.829Z,1.00
2023-05-08T02:28:08.335Z,1.00
2023-05-08T02:32:18.841Z,99.90
2023-05-08T02:36:31.600Z,84.00
2023-05-08T02:41:01.540Z,99.90
2023-05-08T02:45:12.187Z,28.70
2023-05-08T02:49:30.051Z,1.00
2023-05-08T02:53:44.674Z,1.00
2023-05-08T02:58:23.451Z,12.00
2023-05-08T03:06:49.717Z,99.90
2023-05-08T03:11:01.671Z,1.00
2023-05-08T03:15:28.279Z,1.00
2023-05-08T03:19:40.042Z,1.00
2023-05-08T03:23:50.382Z,1.00
2023-05-08T03:28:00.558Z,1.00
2023-05-08T03:32:10.214Z,1.00
2023-05-08T03:36:20.048Z,7.00
2023-05-08T03:40:29.603Z,14.80
2023-05-08T03:44:39.777Z,99.90
2023-05-08T03:48:50.238Z,99.90
2023-05-08T03:53:00.135Z,99.90
2023-05-08T03:57:09.366Z,99.90
2023-05-08T04:01:32.968Z,1.00
2023-05-08T04:05:53.534Z,99.90
2023-05-08T04:10:27.969Z,1.00
2023-05-08T04:14:45.507Z,1.00
2023-05-08T04:18:57.149Z,1.00
2023-05-08T04:23:06.813Z,1.00
2023-05-08T04:27:16.162Z,5.40
2023-05-08T04:31:26.920Z,99.90
2023-05-08T04:35:35.540Z,99.90
2023-05-08T04:39:44.108Z,99.90
2023-05-08T04:43:52.775Z,99.90
2023-05-08T04:48:01.578Z,99.90
2023-05-08T04:52:10.441Z,99.90
2023-05-08T04:56:19.382Z,99.30
2023-05-08T05:00:28.008Z,99.90
2023-05-08T05:04:37.351Z,99.90
2023-05-08T05:08:45.981Z,99.90
2023-05-08T05:12:54.963Z,99.90
2023-05-08T05:17:03.688Z,1.00
2023-05-08T05:21:12.282Z,1.00
2023-05-08T05:25:20.960Z,1.00
2023-05-08T05:29:30.247Z,1.00
2023-05-08T05:33:38.876Z,99.90
2023-05-08T05:37:47.499Z,99.90
2023-05-08T05:41:56.134Z,1.00
2023-05-08T05:46:08.531Z,1.00
2023-05-08T05:50:22.395Z,1.00
2023-05-08T05:54:33.326Z,8.60
2023-05-08T05:58:43.646Z,94.30
2023-05-08T06:02:52.413Z,99.90
2023-05-08T06:07:01.210Z,99.90
2023-05-08T06:11:12.607Z,99.90
2023-05-08T06:15:22.026Z,99.90
2023-05-08T06:19:30.783Z,99.90
2023-05-08T06:23:39.512Z,99.90
2023-05-08T06:27:48.159Z,27.40
2023-05-08T06:31:57.427Z,32.60
2023-05-08T06:36:09.532Z,20.30
2023-05-08T06:40:18.435Z,25.20
2023-05-08T06:44:27.067Z,16.40
2023-05-08T06:48:35.956Z,18.00
2023-05-08T06:52:44.525Z,1.00
2023-05-08T06:56:54.305Z,1.00
2023-05-08T07:01:03.125Z,1.00
2023-05-08T07:05:11.973Z,99.90
2023-05-08T07:09:20.849Z,99.90
2023-05-08T07:13:29.612Z,1.00
2023-05-08T07:17:38.240Z,99.90
2023-05-08T07:21:47.328Z,1.00
2023-05-08T07:25:56.082Z,99.90
2023-05-08T07:30:04.940Z,1.00
2023-05-08T07:34:13.694Z,22.00
2023-05-08T07:38:22.410Z,1.00
2023-05-08T07:42:31.095Z,1.00
2023-05-08T07:46:39.963Z,1.00
2023-05-08T07:50:50.457Z,99.70
2023-05-08T07:54:59.149Z,99.90
2023-05-08T07:59:07.810Z,1.00
2023-05-08T08:03:17.493Z,1.00
2023-05-08T08:07:26.801Z,99.90
2023-05-08T08:11:35.435Z,99.90
2023-05-08T08:15:44.062Z,99.90
2023-05-08T08:19:53.520Z,1.00
2023-05-08T08:24:21.546Z,99.90
2023-05-08T08:28:30.272Z,1.00
2023-05-08T08:32:39.108Z,1.00
2023-05-08T08:36:48.124Z,99.90
2023-05-08T08:40:56.755Z,1.00
2023-05-08T08:45:27.032Z,99.90
2023-05-08T08:49:41.765Z,1.00
2023-05-08T08:53:52.583Z,1.00
2023-05-08T08:58:16.504Z,99.90
2023-05-08T09:02:40.639Z,99.90
2023-05-08T09:06:51.116Z,99.90
2023-05-08T09:11:01.372Z,1.00
2023-05-08T09:15:10.158Z,1.00
2023-05-08T09:19:19.583Z,1.00
2023-05-08T09:23:29.075Z,1.00
2023-05-08T09:27:38.509Z,1.00
2023-05-08T09:31:51.738Z,1.00
2023-05-08T09:36:00.487Z,31.90
2023-05-08T09:40:20.081Z,53.40
2023-05-08T09:44:29.094Z,1.00
2023-05-08T09:48:40.800Z,1.00
2023-05-08T09:52:50.843Z,1.00
2023-05-08T09:56:59.494Z,1.00
2023-05-08T10:01:09.324Z,1.00
2023-05-08T10:05:27.564Z,1.00
2023-05-08T10:09:49.771Z,1.00
2023-05-08T10:13:47.421Z,1.00
2023-05-08T10:18:01.960Z,1.00
2023-05-08T10:22:12.483Z,1.00
2023-05-08T10:26:24.884Z,1.00
2023-05-08T10:30:35.096Z,1.00
2023-05-08T10:34:47.667Z,1.00
2023-05-08T10:38:59.335Z,1.00
2023-05-08T10:43:10.154Z,1.00
2023-05-08T10:47:24.389Z,1.00
2023-05-08T10:51:44.700Z,1.00
2023-05-08T10:55:53.704Z,1.00
2023-05-08T11:00:03.200Z,1.00
2023-05-08T11:04:24.852Z,1.00
2023-05-08T11:08:33.599Z,1.00
2023-05-08T11:12:45.362Z,1.00
2023-05-08T11:17:02.701Z,1.00
2023-05-08T11:21:16.656Z,1.00
2023-05-08T11:25:28.298Z,1.00
2023-05-08T11:29:37.738Z,1.00
2023-05-08T11:33:46.420Z,1.00
2023-05-08T11:38:31.818Z,1.00
2023-05-08T11:42:40.571Z,1.00
2023-05-08T11:46:58.037Z,1.00
2023-05-08T11:51:07.243Z,1.00
2023-05-08T11:55:17.591Z,1.00
2023-05-08T11:59:26.735Z,1.00
2023-05-08T12:03:35.773Z,1.00
2023-05-08T12:07:46.677Z,1.00
2023-05-08T12:11:58.957Z,1.00
2023-05-08T12:16:08.389Z,1.00
2023-05-08T12:20:19.230Z,1.00
2023-05-08T12:24:28.032Z,1.00
2023-05-08T12:28:36.769Z,1.00
2023-05-08T12:32:45.412Z,1.00
2023-05-08T12:37:04.980Z,1.00
2023-05-08T12:41:13.577Z,1.00
2023-05-08T12:45:24.316Z,1.00
2023-05-08T12:49:33.651Z,1.00
2023-05-08T12:53:42.242Z,1.00
2023-05-08T12:58:09.154Z,1.00
2023-05-08T13:02:23.955Z,1.00
2023-05-08T13:06:33.339Z,1.00
2023-05-08T13:10:55.994Z,1.00
2023-05-08T13:15:05.058Z,1.00
2023-05-08T13:19:15.638Z,1.00
2023-05-08T13:23:24.555Z,1.00
2023-05-08T13:27:33.181Z,1.00
2023-05-08T13:31:42.632Z,1.00
2023-05-08T13:35:51.555Z,1.00
2023-05-08T13:40:00.421Z,1.00
2023-05-08T13:44:09.114Z,1.00
2023-05-08T13:48:17.744Z,1.00
2023-05-08T13:52:30.621Z,1.00
2023-05-08T13:56:39.303Z,1.00
2023-05-08T14:00:48.014Z,1.00
2023-05-08T14:04:57.391Z,1.00
2023-05-08T14:09:06.029Z,1.00
2023-05-08T14:13:14.771Z,1.00
2023-05-08T14:17:23.475Z,1.00
2023-05-08T14:21:32.102Z,1.00
2023-05-08T14:25:40.831Z,1.00
2023-05-08T14:29:49.533Z,1.00
2023-05-08T14:33:58.163Z,1.00
2023-05-08T14:38:06.776Z,1.00
2023-05-08T14:42:22.860Z,1.00
2023-05-08T14:46:25.992Z,1.00
2023-05-08T14:50:34.902Z,1.00
2023-05-08T14:54:44.098Z,1.00
2023-05-08T14:58:55.225Z,1.00
2023-05-08T15:07:19.741Z,1.00
2023-05-08T15:11:28.376Z,1.00
2023-05-08T15:15:37.083Z,1.00
2023-05-08T15:19:46.078Z,1.00
2023-05-08T15:23:55.826Z,1.00
2023-05-08T15:28:04.516Z,1.00
2023-05-08T15:32:13.306Z,1.00
2023-05-08T15:36:21.973Z,1.00
2023-05-08T15:40:30.599Z,1.00
2023-05-08T15:44:54.155Z,1.00
2023-05-08T15:48:49.510Z,1.00
2023-05-08T15:52:58.236Z,1.00
2023-05-08T15:57:06.856Z,1.00
2023-05-08T16:01:15.614Z,1.00
2023-05-08T16:05:24.174Z,1.00
2023-05-08T16:09:32.775Z,1.00
2023-05-08T16:13:41.408Z,1.00
2023-05-08T16:17:50.242Z,1.00
2023-05-08T16:21:58.897Z,1.00
2023-05-08T16:26:07.539Z,1.00
2023-05-08T16:30:16.427Z,1.00
2023-05-08T16:34:25.033Z,1.00
2023-05-08T16:38:33.760Z,1.00
2023-05-08T16:42:42.392Z,1.00
2023-05-08T16:46:51.235Z,1.00
2023-05-08T16:50:59.955Z,1.00
2023-05-08T16:55:09.652Z,1.00
2023-05-08T16:59:18.336Z,1.00
2023-05-08T17:03:27.249Z,1.00
2023-05-08T17:07:36.315Z,1.00
2023-05-08T17:11:45.111Z,1.00
2023-05-08T17:15:56.791Z,1.00
2023-05-08T17:20:05.972Z,1.00
2023-05-08T17:24:14.862Z,1.00
2023-05-08T17:28:26.142Z,1.00
2023-05-08T17:32:34.876Z,1.00
2023-05-08T17:36:43.651Z,1.00
2023-05-08T17:40:52.303Z,1.00
2023-05-08T17:45:01.242Z,1.00
2023-05-08T17:49:10.197Z,1.00
2023-05-08T17:53:20.021Z,1.00
2023-05-08T17:57:28.632Z,1.00
2023-05-08T18:01:37.333Z,1.00
2023-05-08T18:05:46.023Z,1.00
2023-05-08T18:09:54.609Z,1.00
2023-05-08T18:14:03.277Z,1.00
2023-05-08T18:18:12.009Z,1.00
2023-05-08T18:22:20.669Z,1.00
2023-05-08T18:26:29.282Z,1.00
2023-05-08T18:30:39.548Z,1.00
2023-05-08T18:34:48.313Z,1.00
2023-05-08T18:38:56.967Z,1.00
2023-05-08T18:43:08.492Z,1.00
2023-05-08T18:47:17.240Z,1.00
2023-05-08T18:51:25.822Z,1.00
2023-05-08T18:55:34.689Z,1.00
2023-05-08T18:59:43.314Z,1.00
2023-05-08T19:03:52.031Z,1.00
2023-05-08T19:08:00.703Z,1.00
2023-05-08T19:12:09.450Z,1.00
2023-05-08T19:16:18.259Z,1.00
2023-05-08T19:20:26.858Z,1.00
2023-05-08T19:24:35.519Z,1.00
2023-05-08T19:28:45.918Z,1.00
2023-05-08T19:32:54.600Z,1.00
2023-05-08T19:37:03.221Z,1.00
2023-05-08T19:41:16.262Z,1.00
2023-05-08T19:45:24.884Z,1.00
2023-05-08T19:49:33.620Z,1.00
2023-05-08T19:53:42.757Z,1.00
2023-05-08T19:57:52.103Z,1.00
2023-05-08T20:02:01.218Z,1.00
2023-05-08T20:06:09.980Z,1.00
2023-05-08T20:10:18.637Z,1.00
2023-05-08T20:14:27.213Z,14.30
2023-05-08T20:18:36.172Z,17.90
2023-05-08T20:22:44.914Z,29.80
2023-05-08T20:26:56.189Z,66.00
2023-05-08T20:31:05.063Z,75.30
2023-05-08T20:35:14.796Z,58.20
2023-05-08T20:39:24.224Z,61.20
2023-05-08T20:43:32.797Z,94.00
2023-05-08T20:47:41.532Z,99.90
2023-05-08T20:51:50.315Z,99.90
2023-05-08T20:56:01.122Z,99.90
2023-05-08T21:00:10.283Z,99.90
2023-05-08T21:04:18.929Z,99.90
2023-05-08T21:08:28.528Z,99.90
2023-05-08T21:12:37.243Z,99.90
2023-05-08T21:16:46.028Z,99.90
2023-05-08T21:20:54.654Z,99.90
2023-05-08T21:25:03.669Z,99.90
2023-05-08T21:29:12.381Z,99.90
2023-05-08T21:33:21.042Z,99.90
2023-05-08T21:37:31.589Z,99.90
2023-05-08T21:41:41.776Z,99.90
2023-05-08T21:45:51.896Z,99.90
2023-05-08T21:50:00.893Z,99.90
2023-05-08T21:54:10.405Z,99.90
2023-05-08T21:58:19.034Z,99.90
2023-05-08T22:02:27.712Z,99.90
2023-05-08T22:06:36.434Z,99.90
2023-05-08T22:10:45.324Z,99.90
2023-05-08T22:14:54.567Z,99.90
2023-05-08T22:19:03.123Z,99.90
2023-05-08T22:23:11.929Z,99.90
2023-05-08T22:27:20.691Z,99.90
2023-05-08T22:31:29.326Z,99.90
2023-05-08T22:35:38.007Z,99.90
2023-05-08T22:39:46.641Z,99.90
2023-05-08T22:43:56.959Z,99.90
2023-05-08T22:48:06.833Z,99.90
2023-05-08T22:52:15.416Z,99.90
2023-05-08T22:56:26.213Z,99.90
2023-05-08T23:00:37.060Z,99.90
2023-05-08T23:04:47.505Z,99.90
2023-05-08T23:08:56.364Z,99.90
2023-05-08T23:13:06.296Z,99.90
2023-05-08T23:17:17.309Z,99.90
2023-05-08T23:21:25.532Z,99.90
2023-05-08T23:25:34.279Z,99.90
2023-05-08T23:29:43.507Z,99.90
2023-05-08T23:33:52.132Z,99.90
2023-05-08T23:38:01.172Z,99.90
2023-05-08T23:42:10.007Z,99.90
2023-05-08T23:46:18.666Z,99.90
2023-05-08T23:50:27.367Z,99.90
2023-05-08T23:54:36.403Z,99.90
2023-05-08T23:58:45.135Z,99.90
